aviador You're here:

KBKX Decoded Metar

BROOKINGS in SD, USA
Report Time2017-09-21 20:56:00
UTC Time2017-09-21 21:25:48
Flight Rules vfr VFR
Wind160° at 19 Gusting to 25 kt
W.Decomp.*RWY 17: 18.3 kt HW 5.2 kt LCW
RWY 12: 15.8 kt HW 10.6 kt RCW
W.Rank160° ranks 1
Current wind is above 160° avg. (10.9)
Visibility9999 m
Phenomena:N/A
Clouds:Broken 033 Hf
Broken 045 Hf
Expected CloudBase > 2,800 ft AGL from Temp-Dew spread
Ceiling3,300 ft
Temp29°C (ISA +17)
Dew Point22°C (66% RH)
Heat Index32.0°C
AAT26.9°C
QNH1006 hPa
Density Alt4,216 ft
Elevation1,647 ft
Report Wrong Elevation
Raw Report
METAR KBKX 212056Z AUTO 16019G25KT 10SM BKN033 BKN045 29/22 A2970 RMK
AO2 PK WND 16030/2016 SLPNO T02890217 58020=

Extra information for KBKX:More info

Metar Taf Metar & Taf Last 4 Metars F.Rules Stats Wind Profile Meteogram Temp Stats Airport Information Weather charts Add Link Nearby VenuesMetar ALERT Operation Metar Decoded Social comments

AIRNAV info for KBKX